Time;durP1;ratioP1;P1;durP2;ratioP2;P2;SDS_P1;SDS_P2;PMS_P1;PMS_P2;Temp;Humidity;BMP_temperature;BMP_pressure;BME280_temperature;BME280_humidity;BME280_pressure;Samples;Min_cycle;Max_cycle;Signal;HPM_P1;HPM_P2
2022/09/22 00:00:58;;;;;;;0.70;0.50;;;21.50;74.10;;;;;;5138731;27;45278;-73
2022/09/22 00:03:26;;;;;;;0.47;0.30;;;21.60;72.90;;;;;;5142706;27;46544;-72
2022/09/22 00:06:00;;;;;;;0.30;0.30;;;21.50;72.90;;;;;;5144068;27;45536;-73
2022/09/22 00:08:28;;;;;;;0.70;0.50;;;21.50;73.00;;;;;;5135868;27;45531;-73
2022/09/22 00:11:05;;;;;;;1.10;0.60;;;21.50;72.90;;;;;;5145004;27;45476;-72
2022/09/22 00:13:34;;;;;;;0.40;0.40;;;21.50;72.80;;;;;;5136836;27;46358;-72
2022/09/22 00:16:02;;;;;;;1.77;0.60;;;21.50;72.90;;;;;;5134238;27;45192;-72
2022/09/22 00:18:30;;;;;;;1.85;0.60;;;21.50;72.90;;;;;;5143905;27;45374;-72
2022/09/22 00:20:56;;;;;;;1.05;0.65;;;21.50;72.70;;;;;;5141332;27;45515;-73
2022/09/22 00:23:28;;;;;;;0.75;0.60;;;21.50;72.70;;;;;;5136456;27;46632;-72
2022/09/22 00:25:55;;;;;;;1.20;0.73;;;21.60;72.90;;;;;;5134625;27;45431;-72
2022/09/22 00:28:24;;;;;;;0.40;0.40;;;21.50;72.70;;;;;;5140624;27;45453;-73
2022/09/22 00:30:51;;;;;;;0.55;0.55;;;21.50;72.80;;;;;;5143188;27;45525;-72
2022/09/22 00:33:18;;;;;;;1.25;0.60;;;21.50;72.70;;;;;;5143649;27;46516;-72
2022/09/22 00:35:44;;;;;;;0.65;0.45;;;21.50;72.80;;;;;;5145155;27;45465;-72
2022/09/22 00:38:11;;;;;;;0.98;0.60;;;21.50;72.70;;;;;;5140679;27;45317;-72
2022/09/22 00:40:38;;;;;;;0.75;0.43;;;21.50;72.60;;;;;;5144904;27;45352;-73
2022/09/22 00:43:17;;;;;;;1.05;0.65;;;21.50;72.70;;;;;;5135623;27;45377;-73
2022/09/22 00:45:47;;;;;;;1.27;0.60;;;21.50;72.60;;;;;;5133544;27;45548;-73
2022/09/22 00:48:14;;;;;;;0.60;0.47;;;21.50;72.40;;;;;;5143104;27;45297;-72
2022/09/22 00:50:41;;;;;;;0.95;0.52;;;21.50;72.40;;;;;;5143452;27;45517;-73
2022/09/22 00:53:11;;;;;;;0.70;0.60;;;21.50;72.50;;;;;;5139800;27;45542;-72
2022/09/22 00:55:42;;;;;;;0.70;0.40;;;21.50;72.50;;;;;;5138140;27;45513;-72
2022/09/22 00:58:12;;;;;;;1.08;0.70;;;21.50;72.40;;;;;;5140369;27;45540;-73
2022/09/22 01:00:39;;;;;;;2.05;0.50;;;21.50;72.30;;;;;;5143514;27;45336;-73
2022/09/22 01:03:11;;;;;;;0.95;0.65;;;21.50;72.30;;;;;;5136462;27;45383;-72
2022/09/22 01:05:41;;;;;;;1.10;0.57;;;21.50;72.20;;;;;;5144305;27;45237;-72
2022/09/22 01:08:08;;;;;;;0.40;0.40;;;21.50;73.40;;;;;;5140467;27;45304;-72
2022/09/22 01:10:35;;;;;;;1.13;0.60;;;21.50;72.40;;;;;;5144922;27;45385;-72
2022/09/22 01:13:16;;;;;;;1.52;0.80;;;21.50;72.40;;;;;;5128404;27;47522;-72
2022/09/22 01:15:52;;;;;;;1.02;0.60;;;21.50;72.20;;;;;;5133153;27;45597;-72
2022/09/22 01:18:28;;;;;;;1.25;0.60;;;21.50;72.50;;;;;;5139612;27;45264;-73
2022/09/22 01:21:40;;;;;;;0.75;0.50;;;21.50;72.30;;;;;;5145213;27;45379;-73
2022/09/22 01:24:42;;;;;;;0.70;0.50;;;21.50;72.40;;;;;;5052526;28;46712;-73
2022/09/22 01:27:42;;;;;;;0.60;0.52;;;21.50;72.20;;;;;;5139700;27;45811;-73
2022/09/22 01:30:25;;;;;;;1.23;0.80;;;21.50;72.20;;;;;;5138222;27;45416;-72
2022/09/22 01:33:21;;;;;;;0.50;0.50;;;21.50;72.10;;;;;;5132571;27;45254;-73
2022/09/22 01:35:57;;;;;;;0.50;0.50;;;21.50;72.10;;;;;;5128018;27;46328;-72
2022/09/22 01:38:31;;;;;;;0.80;0.52;;;21.50;72.20;;;;;;5140761;27;46087;-72
2022/09/22 01:41:02;;;;;;;1.55;0.65;;;21.50;72.40;;;;;;5141330;27;45421;-73
2022/09/22 01:43:37;;;;;;;0.55;0.43;;;21.50;72.20;;;;;;5129423;27;45371;-72
2022/09/22 01:46:10;;;;;;;0.90;0.52;;;21.50;72.30;;;;;;5133683;27;46554;-72
2022/09/22 01:48:39;;;;;;;0.73;0.60;;;21.50;72.40;;;;;;5133920;27;45341;-73
2022/09/22 01:51:13;;;;;;;0.75;0.60;;;21.50;72.40;;;;;;5126913;27;45340;-73
2022/09/22 01:53:44;;;;;;;1.08;0.63;;;21.50;72.50;;;;;;5138711;27;45389;-73
2022/09/22 01:56:13;;;;;;;0.95;0.60;;;21.50;72.40;;;;;;5139421;27;47211;-72
2022/09/22 01:58:45;;;;;;;2.15;0.70;;;21.50;72.40;;;;;;5134209;27;45299;-72
2022/09/22 02:01:16;;;;;;;0.77;0.77;;;21.50;72.40;;;;;;5139615;27;45355;-74
2022/09/22 02:03:47;;;;;;;0.90;0.60;;;21.50;72.40;;;;;;5136819;27;45599;-73
2022/09/22 02:06:20;;;;;;;0.63;0.47;;;21.50;72.40;;;;;;5132222;27;45462;-72
2022/09/22 02:08:53;;;;;;;0.82;0.50;;;21.50;72.40;;;;;;5136697;27;45411;-72
2022/09/22 02:11:19;;;;;;;0.75;0.57;;;21.50;72.40;;;;;;5138110;27;45317;-73
2022/09/22 02:13:47;;;;;;;0.70;0.50;;;21.40;72.20;;;;;;5145387;27;45494;-72
2022/09/22 02:16:18;;;;;;;0.65;0.55;;;21.40;72.00;;;;;;5133775;27;46546;-72
2022/09/22 02:18:49;;;;;;;0.70;0.60;;;21.50;71.60;;;;;;5141693;27;45363;-72
2022/09/22 02:21:18;;;;;;;0.75;0.60;;;21.50;71.20;;;;;;5142721;27;45268;-72
2022/09/22 02:23:46;;;;;;;0.98;0.63;;;21.40;71.20;;;;;;5146336;27;45421;-72
2022/09/22 02:26:17;;;;;;;1.27;0.77;;;21.50;71.20;;;;;;5144843;27;47102;-73
2022/09/22 02:28:45;;;;;;;1.17;0.60;;;21.40;71.00;;;;;;5146101;27;45371;-72
2022/09/22 02:31:13;;;;;;;0.98;0.35;;;21.40;70.80;;;;;;5143338;27;45322;-75
2022/09/22 02:33:42;;;;;;;0.70;0.50;;;21.50;70.90;;;;;;5137919;27;45616;-73
2022/09/22 02:36:29;;;;;;;0.82;0.60;;;21.40;70.80;;;;;;5138394;27;45384;-72
2022/09/22 02:39:03;;;;;;;1.25;0.60;;;21.40;70.80;;;;;;5142376;27;45329;-72
2022/09/22 02:41:37;;;;;;;0.60;0.50;;;21.50;70.70;;;;;;5127570;27;45404;-73
2022/09/22 02:44:08;;;;;;;1.80;0.70;;;21.50;70.50;;;;;;5139608;27;45368;-72
2022/09/22 02:46:40;;;;;;;0.75;0.52;;;21.40;70.30;;;;;;5143884;27;45537;-72
2022/09/22 02:49:13;;;;;;;1.35;0.60;;;21.40;70.20;;;;;;5147682;27;45440;-72
2022/09/22 02:51:40;;;;;;;0.77;0.52;;;21.50;70.30;;;;;;5139991;27;45322;-72
2022/09/22 02:54:08;;;;;;;0.68;0.40;;;21.40;70.20;;;;;;5137726;27;45565;-72
2022/09/22 02:56:35;;;;;;;0.70;0.57;;;21.40;70.20;;;;;;5136571;27;47043;-73
2022/09/22 02:59:01;;;;;;;0.90;0.70;;;21.40;69.50;;;;;;5130070;27;45413;-73
2022/09/22 03:01:28;;;;;;;0.70;0.50;;;21.40;70.00;;;;;;5141818;27;45429;-73
2022/09/22 03:03:55;;;;;;;1.38;0.70;;;21.40;70.20;;;;;;5141300;27;45322;-73
2022/09/22 03:06:23;;;;;;;0.65;0.50;;;21.40;70.10;;;;;;5138145;27;45491;-72
2022/09/22 03:08:50;;;;;;;0.73;0.55;;;21.40;70.10;;;;;;5146307;27;45421;-72
2022/09/22 03:11:16;;;;;;;0.63;0.60;;;21.40;70.00;;;;;;5142603;27;45460;-72
2022/09/22 03:13:43;;;;;;;0.50;0.50;;;21.40;70.20;;;;;;5138554;27;45457;-72
2022/09/22 03:16:10;;;;;;;0.52;0.52;;;21.40;70.30;;;;;;5139275;27;48364;-73
2022/09/22 03:18:37;;;;;;;0.85;0.60;;;21.40;70.20;;;;;;5142341;27;45441;-72
2022/09/22 03:21:04;;;;;;;0.70;0.57;;;21.40;70.10;;;;;;5137377;27;45361;-73
2022/09/22 03:23:32;;;;;;;1.65;0.57;;;21.40;70.00;;;;;;5146574;27;45263;-72
2022/09/22 03:25:59;;;;;;;0.77;0.57;;;21.40;69.60;;;;;;5142630;27;47767;-72
2022/09/22 03:28:25;;;;;;;0.90;0.70;;;21.50;69.90;;;;;;5140176;27;45488;-74
2022/09/22 03:30:52;;;;;;;0.80;0.60;;;21.40;69.90;;;;;;5144499;27;45478;-73
2022/09/22 03:33:19;;;;;;;0.73;0.40;;;21.40;69.80;;;;;;5142081;27;45456;-73
2022/09/22 03:35:46;;;;;;;1.60;0.77;;;21.40;69.90;;;;;;5133926;27;45470;-73
2022/09/22 03:38:13;;;;;;;0.70;0.55;;;21.40;69.60;;;;;;5136586;27;46007;-72
2022/09/22 03:40:41;;;;;;;0.55;0.45;;;21.40;69.70;;;;;;5140615;27;45336;-72
2022/09/22 03:43:08;;;;;;;0.40;0.32;;;21.50;70.00;;;;;;5143826;27;45332;-73
2022/09/22 03:45:34;;;;;;;1.02;0.70;;;21.40;69.90;;;;;;5133621;27;46861;-72
2022/09/22 03:48:02;;;;;;;0.90;0.60;;;21.40;69.70;;;;;;5134443;27;45425;-73
2022/09/22 03:50:28;;;;;;;0.70;0.60;;;21.40;68.70;;;;;;5140890;27;45355;-72
2022/09/22 03:52:57;;;;;;;0.93;0.57;;;21.40;69.40;;;;;;5145542;27;45454;-72
2022/09/22 03:55:24;;;;;;;0.50;0.40;;;21.40;69.40;;;;;;5128885;27;45392;-72
2022/09/22 03:57:52;;;;;;;0.88;0.55;;;21.40;69.10;;;;;;5135548;27;45512;-72
2022/09/22 04:00:19;;;;;;;1.08;0.60;;;21.40;69.20;;;;;;5141899;27;45444;-72
2022/09/22 04:02:46;;;;;;;0.70;0.50;;;21.40;68.90;;;;;;5136609;27;45427;-72
2022/09/22 04:05:12;;;;;;;1.08;0.70;;;21.40;68.90;;;;;;5141283;27;46388;-73
2022/09/22 04:07:39;;;;;;;1.10;0.63;;;21.40;69.10;;;;;;5133181;27;45370;-72
2022/09/22 04:10:07;;;;;;;0.50;0.50;;;21.40;69.10;;;;;;5142463;27;45525;-72
2022/09/22 04:12:34;;;;;;;0.80;0.55;;;21.40;68.90;;;;;;5143993;27;45346;-72
2022/09/22 04:15:02;;;;;;;0.65;0.50;;;21.40;69.10;;;;;;5144992;27;46415;-73
2022/09/22 04:17:29;;;;;;;1.00;0.68;;;21.40;69.20;;;;;;5142517;27;45430;-73
2022/09/22 04:19:56;;;;;;;0.57;0.50;;;21.40;69.40;;;;;;5141816;27;45328;-73
2022/09/22 04:22:22;;;;;;;0.95;0.63;;;21.40;69.10;;;;;;5143417;27;45205;-72
2022/09/22 04:24:49;;;;;;;0.70;0.50;;;21.40;69.20;;;;;;5134090;27;48283;-74
2022/09/22 04:27:16;;;;;;;0.38;0.38;;;21.40;68.90;;;;;;5139073;27;46376;-74
2022/09/22 04:29:43;;;;;;;0.52;0.43;;;21.40;69.10;;;;;;5138376;27;45475;-72
2022/09/22 04:32:11;;;;;;;0.98;0.52;;;21.40;69.10;;;;;;5140393;27;45359;-72
2022/09/22 04:34:38;;;;;;;0.50;0.50;;;21.40;68.80;;;;;;5134869;27;46619;-72
2022/09/22 04:37:05;;;;;;;1.48;0.50;;;21.40;68.90;;;;;;5139036;27;45874;-73
2022/09/22 04:39:32;;;;;;;2.40;0.50;;;21.40;68.80;;;;;;5131783;27;45675;-73
2022/09/22 04:41:58;;;;;;;0.95;0.60;;;21.40;68.70;;;;;;5144599;27;45624;-72
2022/09/22 04:44:25;;;;;;;0.50;0.50;;;21.40;68.60;;;;;;5141407;27;46595;-73
2022/09/22 04:46:52;;;;;;;0.65;0.60;;;21.40;68.70;;;;;;5127231;27;45316;-72
2022/09/22 04:49:20;;;;;;;1.17;0.70;;;21.40;67.90;;;;;;5132513;27;45354;-72
2022/09/22 04:51:47;;;;;;;0.63;0.50;;;21.40;67.90;;;;;;5132356;27;45433;-72
2022/09/22 04:54:13;;;;;;;0.98;0.60;;;21.40;67.40;;;;;;5141051;27;47533;-72
2022/09/22 04:56:41;;;;;;;0.50;0.50;;;21.30;67.80;;;;;;5135460;27;45313;-73
2022/09/22 04:59:08;;;;;;;1.58;0.80;;;21.30;67.10;;;;;;5139621;27;45539;-73
2022/09/22 05:01:35;;;;;;;1.30;0.77;;;21.30;67.20;;;;;;5134028;27;45521;-73
2022/09/22 05:04:02;;;;;;;1.17;0.65;;;21.30;66.40;;;;;;5139409;27;46634;-72
2022/09/22 05:06:31;;;;;;;0.60;0.60;;;21.30;66.10;;;;;;5142673;27;45428;-72
2022/09/22 05:08:58;;;;;;;1.50;0.80;;;21.30;67.00;;;;;;5132039;27;45390;-72
2022/09/22 05:11:25;;;;;;;1.23;0.80;;;21.30;66.70;;;;;;5137349;27;45360;-72
2022/09/22 05:13:52;;;;;;;0.82;0.60;;;21.40;67.00;;;;;;5133094;27;47920;-72
2022/09/22 05:16:18;;;;;;;1.00;0.77;;;21.40;67.20;;;;;;5139955;27;45412;-72
2022/09/22 05:18:45;;;;;;;1.10;0.90;;;21.40;66.90;;;;;;5134797;27;45326;-72
2022/09/22 05:21:12;;;;;;;2.35;0.77;;;21.40;66.40;;;;;;5141208;27;45680;-72
2022/09/22 05:23:40;;;;;;;0.85;0.68;;;21.40;67.40;;;;;;5135820;27;48046;-72
2022/09/22 05:26:07;;;;;;;0.70;0.60;;;21.40;67.90;;;;;;5141307;27;45271;-73
2022/09/22 05:28:34;;;;;;;0.98;0.70;;;21.40;68.10;;;;;;5141353;27;45326;-72
2022/09/22 05:31:01;;;;;;;0.65;0.65;;;21.40;68.20;;;;;;5130864;27;45429;-73
2022/09/22 05:33:28;;;;;;;1.42;0.85;;;21.40;68.30;;;;;;5135671;27;46123;-72
2022/09/22 05:35:54;;;;;;;1.10;0.75;;;21.40;68.30;;;;;;5131989;27;45314;-73
2022/09/22 05:38:21;;;;;;;0.80;0.80;;;21.40;68.20;;;;;;5142280;27;45306;-72
2022/09/22 05:40:49;;;;;;;1.27;0.63;;;21.40;68.10;;;;;;5140152;27;45289;-72
2022/09/22 05:43:16;;;;;;;1.15;0.80;;;21.40;68.40;;;;;;5142260;27;47527;-73
2022/09/22 05:45:43;;;;;;;1.15;0.70;;;21.40;68.40;;;;;;5137643;27;45411;-73
2022/09/22 05:48:11;;;;;;;0.95;0.80;;;21.40;68.50;;;;;;5134757;27;45585;-72
2022/09/22 05:50:37;;;;;;;1.05;0.50;;;21.50;68.60;;;;;;5141154;27;45463;-73
2022/09/22 05:53:06;;;;;;;1.95;0.68;;;21.50;68.70;;;;;;5146216;27;46577;-72
2022/09/22 05:55:33;;;;;;;13.63;2.10;;;21.40;68.60;;;;;;5139788;27;45512;-71
2022/09/22 05:58:02;;;;;;;17.30;1.90;;;21.40;68.80;;;;;;5146765;27;45387;-72
2022/09/22 06:00:29;;;;;;;12.32;1.58;;;21.40;68.70;;;;;;5145687;27;45361;-72
2022/09/22 06:02:56;;;;;;;10.07;1.70;;;21.50;68.90;;;;;;5145241;27;47197;-74
2022/09/22 06:05:23;;;;;;;4.55;1.02;;;21.40;68.60;;;;;;5143534;27;45320;-74
2022/09/22 06:07:59;;;;;;;4.30;1.00;;;21.50;68.90;;;;;;5148980;27;45370;-74
2022/09/22 06:10:26;;;;;;;5.88;1.00;;;21.40;68.90;;;;;;5146370;27;45493;-74
2022/09/22 06:12:58;;;;;;;4.32;0.75;;;21.50;69.10;;;;;;5148755;27;46410;-73
2022/09/22 06:15:27;;;;;;;2.25;0.80;;;21.40;69.10;;;;;;5147912;27;45384;-74
2022/09/22 06:17:54;;;;;;;2.33;0.90;;;21.50;69.20;;;;;;5149656;27;45314;-74
2022/09/22 06:20:21;;;;;;;2.83;0.93;;;21.40;69.20;;;;;;5140907;27;45628;-74
2022/09/22 06:22:48;;;;;;;1.23;0.75;;;21.40;69.40;;;;;;5148510;27;45368;-74
2022/09/22 06:25:15;;;;;;;1.40;0.73;;;21.50;69.40;;;;;;5149233;27;45489;-73
2022/09/22 06:27:42;;;;;;;1.58;0.82;;;21.50;69.60;;;;;;5140051;27;45482;-74
2022/09/22 06:30:11;;;;;;;2.80;0.60;;;21.50;69.60;;;;;;5138009;27;45555;-74
2022/09/22 06:32:39;;;;;;;1.13;0.55;;;21.50;69.40;;;;;;5148170;27;47927;-75
2022/09/22 06:35:07;;;;;;;0.98;0.65;;;21.50;69.50;;;;;;5148034;27;45635;-74
2022/09/22 06:37:34;;;;;;;1.15;0.70;;;21.40;69.50;;;;;;5118178;27;45334;-74
2022/09/22 06:40:01;;;;;;;0.60;0.60;;;21.40;69.30;;;;;;5147362;27;45422;-74
2022/09/22 06:42:27;;;;;;;1.55;0.65;;;21.40;69.40;;;;;;5144139;27;48729;-74
2022/09/22 06:44:54;;;;;;;0.95;0.68;;;21.40;69.30;;;;;;5146466;27;45433;-74
2022/09/22 06:47:21;;;;;;;0.95;0.82;;;21.50;69.50;;;;;;5151565;27;45577;-74
2022/09/22 06:49:49;;;;;;;0.70;0.60;;;21.40;69.20;;;;;;5143205;27;45458;-74
2022/09/22 06:52:17;;;;;;;0.60;0.60;;;21.40;69.20;;;;;;5137947;27;46259;-74
2022/09/22 06:54:43;;;;;;;1.58;1.00;;;21.50;69.30;;;;;;5148871;27;45257;-74
2022/09/22 06:57:11;;;;;;;0.82;0.63;;;21.40;69.30;;;;;;5148305;27;45567;-74
2022/09/22 06:59:39;;;;;;;1.23;0.80;;;21.40;69.20;;;;;;5147504;27;45622;-75
2022/09/22 07:02:06;;;;;;;1.98;0.70;;;21.40;69.20;;;;;;5147944;27;45414;-74
2022/09/22 07:04:34;;;;;;;0.50;0.40;;;21.40;69.10;;;;;;5148179;27;45520;-74
2022/09/22 07:07:02;;;;;;;1.98;0.85;;;21.40;69.20;;;;;;5141675;27;45456;-74
2022/09/22 07:09:29;;;;;;;1.15;0.75;;;21.40;69.40;;;;;;5140363;27;45259;-73
2022/09/22 07:11:56;;;;;;;0.70;0.60;;;21.40;69.30;;;;;;5148039;27;46741;-74
2022/09/22 07:14:24;;;;;;;1.08;0.77;;;21.40;69.30;;;;;;5148266;27;45368;-74
2022/09/22 07:16:51;;;;;;;1.65;0.68;;;21.40;69.40;;;;;;5135491;27;45354;-74
2022/09/22 07:19:18;;;;;;;1.20;0.57;;;21.40;69.50;;;;;;5147275;27;45399;-74
2022/09/22 07:21:46;;;;;;;0.80;0.60;;;21.40;69.50;;;;;;5147269;27;45464;-74
2022/09/22 07:24:14;;;;;;;1.20;0.82;;;21.40;69.30;;;;;;5136032;27;45885;-74
2022/09/22 07:26:42;;;;;;;1.90;0.65;;;21.40;69.30;;;;;;5138040;27;45563;-74
2022/09/22 07:29:12;;;;;;;0.70;0.70;;;21.40;69.20;;;;;;5148147;27;45357;-73
2022/09/22 07:31:39;;;;;;;0.88;0.60;;;21.40;69.20;;;;;;5147432;27;47309;-75
2022/09/22 07:34:06;;;;;;;1.42;0.73;;;21.50;69.10;;;;;;5146415;27;45423;-73
2022/09/22 07:36:35;;;;;;;0.88;0.60;;;21.40;69.20;;;;;;5146541;27;45322;-74
2022/09/22 07:39:05;;;;;;;1.33;0.70;;;21.50;69.10;;;;;;5133615;27;45419;-74
2022/09/22 07:41:40;;;;;;;0.82;0.60;;;21.50;69.10;;;;;;5147133;27;46999;-75
2022/09/22 07:46:48;;;;;;;1.13;0.90;;;21.50;69.10;;;;;;5139800;27;45487;-74
2022/09/22 07:49:16;;;;;;;0.98;0.65;;;21.50;68.90;;;;;;5139629;27;45264;-74
2022/09/22 07:51:43;;;;;;;1.42;0.60;;;21.50;68.90;;;;;;5147452;27;48335;-73
2022/09/22 07:54:10;;;;;;;1.20;0.70;;;21.50;68.90;;;;;;5147532;27;45865;-74
2022/09/22 07:56:40;;;;;;;0.88;0.52;;;21.50;68.80;;;;;;5134531;27;45341;-73
2022/09/22 07:59:09;;;;;;;1.45;0.73;;;21.50;68.90;;;;;;5133039;27;45410;-73
2022/09/22 08:01:38;;;;;;;0.65;0.60;;;21.50;68.80;;;;;;5141390;27;47052;-74
2022/09/22 08:04:05;;;;;;;2.60;0.80;;;21.50;68.70;;;;;;5138635;27;45297;-74
2022/09/22 08:06:33;;;;;;;0.93;0.63;;;21.50;68.20;;;;;;5131447;27;45299;-75
2022/09/22 08:09:03;;;;;;;2.20;0.80;;;21.50;67.80;;;;;;5126656;27;45479;-74
2022/09/22 08:11:31;;;;;;;1.00;0.80;;;21.50;67.70;;;;;;5126471;27;45713;-73
2022/09/22 08:14:01;;;;;;;0.70;0.60;;;21.50;67.30;;;;;;5126669;27;45366;-73
2022/09/22 08:16:29;;;;;;;0.80;0.70;;;21.50;67.10;;;;;;5130846;27;45282;-73
2022/09/22 08:18:57;;;;;;;2.58;1.02;;;21.50;66.90;;;;;;5146993;27;45572;-74
2022/09/22 08:21:24;;;;;;;0.90;0.73;;;21.50;66.50;;;;;;5147025;27;46306;-73
2022/09/22 08:23:51;;;;;;;1.88;0.90;;;21.50;66.50;;;;;;5134188;27;45381;-74
2022/09/22 08:26:19;;;;;;;1.00;0.90;;;21.50;66.70;;;;;;5146223;27;45468;-74
2022/09/22 08:28:46;;;;;;;1.50;0.85;;;21.50;66.90;;;;;;5148012;27;45259;-74
2022/09/22 08:31:18;;;;;;;1.08;0.60;;;21.50;67.20;;;;;;5142665;27;46320;-73
2022/09/22 08:33:46;;;;;;;1.08;0.77;;;21.50;67.60;;;;;;5134137;27;45475;-74
2022/09/22 08:36:13;;;;;;;1.45;0.80;;;21.60;68.90;;;;;;5147098;27;45265;-74
2022/09/22 08:38:40;;;;;;;1.75;0.80;;;21.60;68.10;;;;;;5146066;27;45474;-73
2022/09/22 08:41:25;;;;;;;1.15;0.65;;;21.60;68.10;;;;;;5146800;27;48048;-74
2022/09/22 08:43:54;;;;;;;1.65;0.80;;;21.60;68.40;;;;;;5134956;27;45343;-72
2022/09/22 08:46:27;;;;;;;0.98;0.65;;;21.60;68.40;;;;;;5146847;27;45341;-74
2022/09/22 08:51:53;;;;;;;1.40;0.90;;;21.60;68.80;;;;;;5128603;27;45472;-74
2022/09/22 08:54:24;;;;;;;1.30;0.65;;;21.60;68.90;;;;;;5146864;27;45451;-74
2022/09/22 08:57:00;;;;;;;2.13;0.63;;;21.60;69.00;;;;;;5147455;27;45270;-73
2022/09/22 08:59:33;;;;;;;1.25;0.73;;;21.60;68.90;;;;;;5146918;27;45686;-73
2022/09/22 09:02:23;;;;;;;2.55;0.80;;;21.60;69.10;;;;;;5146627;27;46373;-74
2022/09/22 09:05:23;;;;;;;1.15;0.57;;;21.60;69.20;;;;;;5144199;27;45252;-73
2022/09/22 09:07:57;;;;;;;1.10;0.70;;;21.70;69.20;;;;;;5112478;27;45199;-74
2022/09/22 09:10:37;;;;;;;0.73;0.70;;;21.60;69.20;;;;;;5144159;27;45240;-74
2022/09/22 09:13:27;;;;;;;1.63;0.55;;;21.60;68.90;;;;;;5126906;27;47053;-74
2022/09/22 09:16:24;;;;;;;2.50;0.80;;;21.70;69.00;;;;;;5123337;27;45423;-74
2022/09/22 09:18:57;;;;;;;1.50;0.80;;;21.70;68.90;;;;;;5124966;27;45625;-73
2022/09/22 09:21:25;;;;;;;1.15;0.80;;;21.70;68.90;;;;;;5125687;27;45146;-74
2022/09/22 09:23:56;;;;;;;1.02;0.60;;;21.70;68.90;;;;;;5131979;27;45463;-74
2022/09/22 09:26:24;;;;;;;1.85;0.70;;;21.70;68.70;;;;;;5137085;27;45433;-74
2022/09/22 09:28:55;;;;;;;1.40;0.80;;;21.70;68.70;;;;;;5125092;27;45591;-74
2022/09/22 09:31:30;;;;;;;2.17;0.90;;;21.70;68.70;;;;;;5126142;27;45376;-74
2022/09/22 09:34:01;;;;;;;1.15;0.77;;;21.70;69.20;;;;;;5136460;27;45419;-74
2022/09/22 09:36:37;;;;;;;1.60;0.70;;;21.70;69.30;;;;;;5145671;27;45310;-74
2022/09/22 09:39:13;;;;;;;0.77;0.50;;;21.70;69.40;;;;;;5145838;27;45268;-73
2022/09/22 09:41:40;;;;;;;0.73;0.50;;;21.70;69.60;;;;;;5146009;27;45406;-74
2022/09/22 09:44:17;;;;;;;1.20;0.60;;;21.70;69.50;;;;;;5138265;27;46307;-73
2022/09/22 09:46:53;;;;;;;0.73;0.60;;;21.70;69.50;;;;;;5131887;27;45886;-74
2022/09/22 09:49:22;;;;;;;1.50;0.60;;;21.70;69.60;;;;;;5143913;27;45205;-74
2022/09/22 09:51:52;;;;;;;1.50;0.70;;;21.70;70.50;;;;;;5145234;27;45690;-74
2022/09/22 09:54:20;;;;;;;0.93;0.57;;;21.70;69.50;;;;;;5144981;27;47987;-73
2022/09/22 09:57:10;;;;;;;2.03;0.88;;;21.70;69.40;;;;;;5141942;27;45492;-74
2022/09/22 10:02:26;;;;;;;3.10;0.80;;;21.70;69.40;;;;;;5145740;27;45409;-74
2022/09/22 10:04:57;;;;;;;1.20;0.65;;;21.70;69.50;;;;;;5146868;27;46828;-74
2022/09/22 10:07:26;;;;;;;1.45;0.60;;;21.70;69.50;;;;;;5147022;27;45349;-74
2022/09/22 10:09:54;;;;;;;0.63;0.40;;;21.70;69.60;;;;;;5147121;27;45383;-74
2022/09/22 10:12:28;;;;;;;1.25;0.65;;;21.70;69.60;;;;;;5146756;27;45438;-74
2022/09/22 10:14:56;;;;;;;0.55;0.50;;;21.70;69.60;;;;;;5146732;27;46496;-74
2022/09/22 10:17:27;;;;;;;0.85;0.43;;;21.70;69.60;;;;;;5146569;27;45245;-74
2022/09/22 10:20:16;;;;;;;1.02;0.52;;;21.70;69.60;;;;;;5143729;27;45412;-74
2022/09/22 10:22:44;;;;;;;1.17;0.60;;;21.70;69.60;;;;;;5147104;27;45379;-74
2022/09/22 10:25:21;;;;;;;0.40;0.40;;;21.70;69.60;;;;;;5146491;27;46716;-75
2022/09/22 10:28:00;;;;;;;1.23;0.40;;;21.70;69.60;;;;;;5146861;27;45322;-74
2022/09/22 10:30:31;;;;;;;0.40;0.40;;;21.70;69.60;;;;;;5138627;27;45259;-74
2022/09/22 10:33:22;;;;;;;0.40;0.40;;;21.70;69.60;;;;;;5147128;27;45430;-74
2022/09/22 10:35:56;;;;;;;0.68;0.43;;;21.70;69.50;;;;;;5143117;27;45363;-75
2022/09/22 10:38:25;;;;;;;1.38;0.40;;;21.70;69.50;;;;;;5150577;27;45209;-75
2022/09/22 10:40:56;;;;;;;1.30;0.40;;;21.70;69.40;;;;;;5150351;27;45412;-74
2022/09/22 10:43:37;;;;;;;0.52;0.50;;;21.70;69.40;;;;;;5150338;27;45164;-75
2022/09/22 10:46:34;;;;;;;0.50;0.40;;;21.70;69.40;;;;;;5150286;27;45573;-74
2022/09/22 10:49:07;;;;;;;0.32;0.32;;;21.70;69.30;;;;;;5144869;27;45899;-74
2022/09/22 10:52:05;;;;;;;1.50;0.40;;;21.70;69.40;;;;;;5150596;27;45311;-75
2022/09/22 10:54:49;;;;;;;1.08;0.50;;;21.70;69.40;;;;;;5150445;27;45536;-75
2022/09/22 10:57:30;;;;;;;0.98;0.50;;;21.70;69.40;;;;;;5150403;27;46077;-74
2022/09/22 11:00:10;;;;;;;0.50;0.50;;;21.70;69.50;;;;;;5149711;27;45342;-74
2022/09/22 11:03:11;;;;;;;0.35;0.32;;;21.70;69.50;;;;;;5149499;27;45376;-75
2022/09/22 11:14:39;;;;;;;0.90;0.38;;;21.70;69.40;;;;;;5111707;27;45417;-75
2022/09/22 11:17:30;;;;;;;0.30;0.30;;;21.70;69.40;;;;;;5149930;27;45483;-75
2022/09/22 11:20:11;;;;;;;0.52;0.47;;;21.70;69.20;;;;;;5149800;27;47763;-75
2022/09/22 11:23:12;;;;;;;0.38;0.38;;;21.70;69.30;;;;;;5149598;27;45825;-74
2022/09/22 11:26:02;;;;;;;0.32;0.32;;;21.70;70.30;;;;;;5149932;27;45247;-74
2022/09/22 11:28:43;;;;;;;0.40;0.40;;;21.70;69.10;;;;;;5135194;27;45326;-74
2022/09/22 11:31:21;;;;;;;0.90;0.32;;;21.70;69.00;;;;;;5128010;27;46992;-74
2022/09/22 11:34:17;;;;;;;0.55;0.38;;;21.70;69.00;;;;;;5128711;27;45257;-74
2022/09/22 11:36:49;;;;;;;0.43;0.40;;;21.70;69.00;;;;;;5134881;27;45367;-74
2022/09/22 11:39:20;;;;;;;0.65;0.50;;;21.70;69.00;;;;;;5149545;27;45173;-74
2022/09/22 11:42:02;;;;;;;0.50;0.35;;;21.70;69.10;;;;;;5149271;27;45295;-74
2022/09/22 11:44:43;;;;;;;0.43;0.40;;;21.70;69.40;;;;;;5149340;27;45220;-74
2022/09/22 11:47:43;;;;;;;0.57;0.45;;;21.70;69.50;;;;;;5148362;27;45227;-74
2022/09/22 11:50:39;;;;;;;0.30;0.30;;;21.70;69.90;;;;;;5149303;27;45318;-74
2022/09/22 11:53:31;;;;;;;0.35;0.30;;;21.70;70.00;;;;;;5148677;27;48176;-74
2022/09/22 11:56:14;;;;;;;0.35;0.32;;;21.60;70.10;;;;;;5145209;27;45189;-74
2022/09/22 11:58:45;;;;;;;0.30;0.30;;;21.60;70.10;;;;;;5149400;27;45291;-75
2022/09/22 12:01:16;;;;;;;0.30;0.30;;;21.70;70.30;;;;;;5148865;27;45184;-74
2022/09/22 12:03:48;;;;;;;0.35;0.35;;;21.60;70.30;;;;;;5146631;27;46098;-74
2022/09/22 12:06:18;;;;;;;0.40;0.40;;;21.60;70.30;;;;;;5149156;27;45453;-75
2022/09/22 12:08:52;;;;;;;0.40;0.30;;;21.60;70.50;;;;;;5149568;27;45154;-73
2022/09/22 12:11:19;;;;;;;0.60;0.30;;;21.60;70.50;;;;;;5149169;27;45392;-75
2022/09/22 12:13:49;;;;;;;0.55;0.40;;;21.60;70.60;;;;;;5148580;27;48185;-74
2022/09/22 12:16:22;;;;;;;0.60;0.50;;;21.60;70.70;;;;;;5149031;27;45272;-74
2022/09/22 12:18:56;;;;;;;0.65;0.43;;;21.60;70.70;;;;;;5148453;27;45205;-74
2022/09/22 12:21:40;;;;;;;0.47;0.40;;;21.60;70.50;;;;;;5148803;27;45604;-74
2022/09/22 12:24:10;;;;;;;0.43;0.30;;;21.60;70.60;;;;;;5148736;27;45417;-74
2022/09/22 12:26:38;;;;;;;0.40;0.40;;;21.60;70.40;;;;;;5148479;27;45363;-74
2022/09/22 12:29:21;;;;;;;0.70;0.43;;;21.70;70.60;;;;;;5129663;27;45303;-75
2022/09/22 12:31:50;;;;;;;0.40;0.30;;;21.60;70.30;;;;;;5127885;27;45379;-74
2022/09/22 12:34:20;;;;;;;0.88;0.50;;;21.60;70.30;;;;;;5127480;27;46337;-75
2022/09/22 12:36:51;;;;;;;0.60;0.38;;;21.70;70.50;;;;;;5127587;27;45118;-75
2022/09/22 12:39:19;;;;;;;0.68;0.40;;;21.60;70.30;;;;;;5127448;27;45268;-75
2022/09/22 12:41:48;;;;;;;0.30;0.30;;;21.60;70.20;;;;;;5127456;27;45575;-74
2022/09/22 12:44:22;;;;;;;0.60;0.30;;;21.60;70.20;;;;;;5127238;27;47539;-74
2022/09/22 12:46:50;;;;;;;0.30;0.30;;;21.60;70.30;;;;;;5127191;27;46214;-74
2022/09/22 12:49:21;;;;;;;0.88;0.50;;;21.60;70.30;;;;;;5127578;27;45373;-74
2022/09/22 12:51:48;;;;;;;0.60;0.32;;;21.60;70.20;;;;;;5127545;27;45267;-74
2022/09/22 12:54:36;;;;;;;0.55;0.20;;;21.60;70.30;;;;;;5146037;27;45276;-75
2022/09/22 12:57:22;;;;;;;0.63;0.57;;;21.60;70.40;;;;;;5143820;27;45288;-74
2022/09/22 13:00:19;;;;;;;0.40;0.40;;;21.60;70.20;;;;;;5147575;27;45402;-74
2022/09/22 13:02:48;;;;;;;0.40;0.30;;;21.60;70.50;;;;;;5148447;27;45122;-74
2022/09/22 13:05:36;;;;;;;0.50;0.30;;;21.60;70.30;;;;;;5147605;27;47534;-74
2022/09/22 13:08:03;;;;;;;0.20;0.20;;;21.60;70.20;;;;;;5147843;27;46082;-74
2022/09/22 13:10:53;;;;;;;0.22;0.20;;;21.60;70.40;;;;;;5148187;27;45189;-74
2022/09/22 13:13:38;;;;;;;1.67;0.40;;;21.60;71.50;;;;;;5148088;27;45445;-74
2022/09/22 13:16:35;;;;;;;0.50;0.40;;;21.60;71.30;;;;;;5147862;27;47302;-74
2022/09/22 13:19:04;;;;;;;0.90;0.30;;;21.60;70.30;;;;;;5147842;27;45918;-74
2022/09/22 13:21:33;;;;;;;0.50;0.30;;;21.60;70.20;;;;;;5144883;27;45609;-71
2022/09/22 13:30:45;;;;;;;1.30;0.45;;;21.80;74.00;;;;;;5145397;27;45293;-76
2022/09/22 13:33:24;;;;;;;2.00;0.35;;;21.90;73.60;;;;;;5148297;27;45256;-76